Ashwood, Mississippi
Current Conditions -  °F | °C
As of 12:15 PM on Tuesday 21 Oct 2014 (Local Time) from KHEZ Reporting Station
Clear Clear  
Wind Chill: 23°   Ceiling: Unl
Heat Index: 23°   Visibility: 10mi
Dew Point: 12°   Wind: 8mph
Humidity: 50%   Direction: 340°NNW
Pressure: 30.1"   Gusts: NA
Location:  31.1784°N, 91.3525°W
Report Text: KHEZ 211715Z AUTO 34007KT 320V030 10SM CLR 23/12 A3010 RMK AO1
Loading
Personal Weather Stations






























Interactive Weather Map
Tropical Storm Tracking
New forecast layout! Learn more

10-Day Weather Forecast

Advertisements
Track Severe Weather on mobile